Tilden, Illinois
Current Conditions -  °F | °C
As of 11:35 AM on Tuesday 21 Oct 2014 (Local Time) from KSAR Reporting Station
Clear Clear  
Wind Chill: 62°   Ceiling: Unl
Heat Index: 62°   Visibility: 10mi
Dew Point: 48°   Wind: 5mph
Humidity: 60%   Direction: 10°N
Pressure: 30.13"   Gusts: NA
Location:  38.21°N, 89.68°W
Report Text: KSAR 211635Z AUTO 01004KT 10SM CLR 17/09 A3013 RMK AO2 T01670088
Loading
Personal Weather Stations






























Interactive Weather Map
Tropical Storm Tracking
New forecast layout! Learn more

10-Day Weather Forecast

Advertisements
Track Severe Weather on mobile